sensor_id;sensor_type;location;lat;lon;timestamp;P1;durP1;ratioP1;P2;durP2;ratioP2
15637;SDS011;26604;53.596;10.042;2022-07-22T00:02:08;8.23;;;6.43;;
15637;SDS011;26604;53.596;10.042;2022-07-22T00:04:35;11.57;;;7.55;;
15637;SDS011;26604;53.596;10.042;2022-07-22T00:07:02;11.73;;;8.48;;
15637;SDS011;26604;53.596;10.042;2022-07-22T00:09:30;14.93;;;8.93;;
15637;SDS011;26604;53.596;10.042;2022-07-22T00:11:58;10.05;;;7.15;;
15637;SDS011;26604;53.596;10.042;2022-07-22T00:14:25;15.13;;;11.32;;
15637;SDS011;26604;53.596;10.042;2022-07-22T00:16:52;10.77;;;8.30;;
15637;SDS011;26604;53.596;10.042;2022-07-22T00:19:19;10.05;;;8.10;;
15637;SDS011;26604;53.596;10.042;2022-07-22T00:21:46;14.57;;;11.15;;
15637;SDS011;26604;53.596;10.042;2022-07-22T00:24:13;22.33;;;13.98;;
15637;SDS011;26604;53.596;10.042;2022-07-22T00:26:42;21.85;;;14.25;;
15637;SDS011;26604;53.596;10.042;2022-07-22T00:29:09;24.25;;;13.90;;
15637;SDS011;26604;53.596;10.042;2022-07-22T00:31:36;23.85;;;15.50;;
15637;SDS011;26604;53.596;10.042;2022-07-22T00:34:03;23.15;;;14.60;;
15637;SDS011;26604;53.596;10.042;2022-07-22T00:36:30;23.98;;;15.18;;
15637;SDS011;26604;53.596;10.042;2022-07-22T00:38:57;23.48;;;14.63;;
15637;SDS011;26604;53.596;10.042;2022-07-22T00:41:24;22.92;;;13.55;;
15637;SDS011;26604;53.596;10.042;2022-07-22T00:43:54;21.85;;;13.73;;
15637;SDS011;26604;53.596;10.042;2022-07-22T00:46:24;20.05;;;13.32;;
15637;SDS011;26604;53.596;10.042;2022-07-22T00:48:52;19.15;;;11.95;;
15637;SDS011;26604;53.596;10.042;2022-07-22T00:51:19;19.02;;;12.00;;
15637;SDS011;26604;53.596;10.042;2022-07-22T00:53:46;20.15;;;10.70;;
15637;SDS011;26604;53.596;10.042;2022-07-22T00:56:14;18.33;;;10.75;;
15637;SDS011;26604;53.596;10.042;2022-07-22T00:58:43;15.70;;;10.35;;
15637;SDS011;26604;53.596;10.042;2022-07-22T01:01:12;13.25;;;7.63;;
15637;SDS011;26604;53.596;10.042;2022-07-22T01:03:39;12.65;;;7.32;;
15637;SDS011;26604;53.596;10.042;2022-07-22T01:06:06;6.35;;;4.75;;
15637;SDS011;26604;53.596;10.042;2022-07-22T01:08:33;8.88;;;4.45;;
15637;SDS011;26604;53.596;10.042;2022-07-22T01:11:07;5.25;;;3.90;;
15637;SDS011;26604;53.596;10.042;2022-07-22T01:13:36;6.43;;;4.28;;
15637;SDS011;26604;53.596;10.042;2022-07-22T01:16:03;7.10;;;3.78;;
15637;SDS011;26604;53.596;10.042;2022-07-22T01:18:32;5.85;;;3.83;;
15637;SDS011;26604;53.596;10.042;2022-07-22T01:21:01;4.82;;;2.75;;
15637;SDS011;26604;53.596;10.042;2022-07-22T01:23:28;4.88;;;3.00;;
15637;SDS011;26604;53.596;10.042;2022-07-22T01:25:55;4.72;;;2.63;;
15637;SDS011;26604;53.596;10.042;2022-07-22T01:28:22;5.05;;;2.70;;
15637;SDS011;26604;53.596;10.042;2022-07-22T01:30:49;4.07;;;2.85;;
15637;SDS011;26604;53.596;10.042;2022-07-22T01:33:17;3.20;;;2.25;;
15637;SDS011;26604;53.596;10.042;2022-07-22T01:35:44;2.90;;;2.03;;
15637;SDS011;26604;53.596;10.042;2022-07-22T01:38:13;8.30;;;2.00;;
15637;SDS011;26604;53.596;10.042;2022-07-22T01:40:40;3.88;;;1.90;;
15637;SDS011;26604;53.596;10.042;2022-07-22T01:43:08;5.95;;;2.58;;
15637;SDS011;26604;53.596;10.042;2022-07-22T01:45:35;5.65;;;2.90;;
15637;SDS011;26604;53.596;10.042;2022-07-22T01:48:02;7.03;;;3.13;;
15637;SDS011;26604;53.596;10.042;2022-07-22T01:50:30;6.55;;;3.40;;
15637;SDS011;26604;53.596;10.042;2022-07-22T01:52:57;6.80;;;3.25;;
15637;SDS011;26604;53.596;10.042;2022-07-22T01:55:25;8.02;;;3.53;;
15637;SDS011;26604;53.596;10.042;2022-07-22T01:57:52;9.45;;;4.25;;
15637;SDS011;26604;53.596;10.042;2022-07-22T02:00:19;10.45;;;4.72;;
15637;SDS011;26604;53.596;10.042;2022-07-22T02:02:46;9.00;;;3.63;;
15637;SDS011;26604;53.596;10.042;2022-07-22T02:05:12;10.70;;;5.25;;
15637;SDS011;26604;53.596;10.042;2022-07-22T02:07:39;9.18;;;4.25;;
15637;SDS011;26604;53.596;10.042;2022-07-22T02:10:07;13.77;;;5.40;;
15637;SDS011;26604;53.596;10.042;2022-07-22T02:12:36;16.70;;;5.32;;
15637;SDS011;26604;53.596;10.042;2022-07-22T02:15:03;15.65;;;5.70;;
15637;SDS011;26604;53.596;10.042;2022-07-22T02:17:31;14.07;;;5.30;;
15637;SDS011;26604;53.596;10.042;2022-07-22T02:19:58;8.35;;;4.45;;
15637;SDS011;26604;53.596;10.042;2022-07-22T02:22:25;13.73;;;4.63;;
15637;SDS011;26604;53.596;10.042;2022-07-22T02:24:52;13.02;;;4.43;;
15637;SDS011;26604;53.596;10.042;2022-07-22T02:27:19;10.73;;;4.03;;
15637;SDS011;26604;53.596;10.042;2022-07-22T02:29:47;12.70;;;4.25;;
15637;SDS011;26604;53.596;10.042;2022-07-22T02:32:14;9.07;;;3.53;;
15637;SDS011;26604;53.596;10.042;2022-07-22T02:34:41;7.40;;;3.58;;
15637;SDS011;26604;53.596;10.042;2022-07-22T02:37:08;8.63;;;3.63;;
15637;SDS011;26604;53.596;10.042;2022-07-22T02:39:35;9.60;;;3.33;;
15637;SDS011;26604;53.596;10.042;2022-07-22T02:42:02;12.63;;;3.28;;
15637;SDS011;26604;53.596;10.042;2022-07-22T02:44:29;7.93;;;2.92;;
15637;SDS011;26604;53.596;10.042;2022-07-22T02:46:57;12.45;;;3.33;;
15637;SDS011;26604;53.596;10.042;2022-07-22T02:49:24;9.15;;;2.90;;
15637;SDS011;26604;53.596;10.042;2022-07-22T02:51:51;9.00;;;2.67;;
15637;SDS011;26604;53.596;10.042;2022-07-22T02:54:18;8.82;;;2.88;;
15637;SDS011;26604;53.596;10.042;2022-07-22T02:56:45;5.97;;;2.28;;
15637;SDS011;26604;53.596;10.042;2022-07-22T02:59:12;7.82;;;2.35;;
15637;SDS011;26604;53.596;10.042;2022-07-22T03:01:39;10.05;;;2.72;;
15637;SDS011;26604;53.596;10.042;2022-07-22T03:04:07;11.70;;;2.25;;
15637;SDS011;26604;53.596;10.042;2022-07-22T03:06:34;15.30;;;2.60;;
15637;SDS011;26604;53.596;10.042;2022-07-22T03:09:01;10.88;;;2.42;;
15637;SDS011;26604;53.596;10.042;2022-07-22T03:11:29;6.88;;;2.10;;
15637;SDS011;26604;53.596;10.042;2022-07-22T03:13:56;11.43;;;2.58;;
15637;SDS011;26604;53.596;10.042;2022-07-22T03:16:23;8.05;;;2.35;;
15637;SDS011;26604;53.596;10.042;2022-07-22T03:18:50;6.68;;;1.90;;
15637;SDS011;26604;53.596;10.042;2022-07-22T03:21:18;9.57;;;2.10;;
15637;SDS011;26604;53.596;10.042;2022-07-22T03:23:45;6.43;;;1.98;;
15637;SDS011;26604;53.596;10.042;2022-07-22T03:26:12;9.48;;;2.00;;
15637;SDS011;26604;53.596;10.042;2022-07-22T03:28:39;7.10;;;1.92;;
15637;SDS011;26604;53.596;10.042;2022-07-22T03:31:06;9.27;;;2.30;;
15637;SDS011;26604;53.596;10.042;2022-07-22T03:33:33;10.95;;;2.47;;
15637;SDS011;26604;53.596;10.042;2022-07-22T03:36:00;18.67;;;2.00;;
15637;SDS011;26604;53.596;10.042;2022-07-22T03:38:28;7.60;;;2.40;;
15637;SDS011;26604;53.596;10.042;2022-07-22T03:40:55;5.07;;;1.65;;
15637;SDS011;26604;53.596;10.042;2022-07-22T03:43:22;5.82;;;1.70;;
15637;SDS011;26604;53.596;10.042;2022-07-22T03:45:48;7.80;;;1.85;;
15637;SDS011;26604;53.596;10.042;2022-07-22T03:48:15;11.13;;;1.98;;
15637;SDS011;26604;53.596;10.042;2022-07-22T03:50:42;5.32;;;1.73;;
15637;SDS011;26604;53.596;10.042;2022-07-22T03:53:09;11.57;;;1.58;;
15637;SDS011;26604;53.596;10.042;2022-07-22T03:55:38;8.98;;;1.58;;
15637;SDS011;26604;53.596;10.042;2022-07-22T03:58:05;4.78;;;1.30;;
15637;SDS011;26604;53.596;10.042;2022-07-22T04:00:32;8.45;;;1.65;;
15637;SDS011;26604;53.596;10.042;2022-07-22T04:02:58;5.22;;;1.50;;
15637;SDS011;26604;53.596;10.042;2022-07-22T04:05:25;4.97;;;2.00;;
15637;SDS011;26604;53.596;10.042;2022-07-22T04:07:52;4.78;;;1.60;;
15637;SDS011;26604;53.596;10.042;2022-07-22T04:10:19;5.32;;;1.95;;
15637;SDS011;26604;53.596;10.042;2022-07-22T04:12:48;5.75;;;1.50;;
15637;SDS011;26604;53.596;10.042;2022-07-22T04:15:15;3.35;;;1.40;;
15637;SDS011;26604;53.596;10.042;2022-07-22T04:17:42;3.53;;;1.33;;
15637;SDS011;26604;53.596;10.042;2022-07-22T04:20:09;2.92;;;1.17;;
15637;SDS011;26604;53.596;10.042;2022-07-22T04:22:36;6.25;;;1.42;;
15637;SDS011;26604;53.596;10.042;2022-07-22T04:25:03;1.95;;;1.20;;
15637;SDS011;26604;53.596;10.042;2022-07-22T04:27:31;7.18;;;1.63;;
15637;SDS011;26604;53.596;10.042;2022-07-22T04:29:59;5.50;;;1.33;;
15637;SDS011;26604;53.596;10.042;2022-07-22T04:32:26;6.03;;;1.60;;
15637;SDS011;26604;53.596;10.042;2022-07-22T04:34:53;14.80;;;1.33;;
15637;SDS011;26604;53.596;10.042;2022-07-22T04:37:20;4.78;;;1.35;;
15637;SDS011;26604;53.596;10.042;2022-07-22T04:39:47;4.55;;;0.98;;
15637;SDS011;26604;53.596;10.042;2022-07-22T04:42:14;8.00;;;1.88;;
15637;SDS011;26604;53.596;10.042;2022-07-22T04:44:41;4.20;;;1.35;;
15637;SDS011;26604;53.596;10.042;2022-07-22T04:47:11;6.82;;;1.35;;
15637;SDS011;26604;53.596;10.042;2022-07-22T04:49:38;4.30;;;1.20;;
15637;SDS011;26604;53.596;10.042;2022-07-22T04:52:05;6.35;;;2.17;;
15637;SDS011;26604;53.596;10.042;2022-07-22T04:54:32;6.53;;;1.33;;
15637;SDS011;26604;53.596;10.042;2022-07-22T04:56:59;5.25;;;1.05;;
15637;SDS011;26604;53.596;10.042;2022-07-22T04:59:25;4.78;;;1.45;;
15637;SDS011;26604;53.596;10.042;2022-07-22T05:01:52;4.22;;;1.25;;
15637;SDS011;26604;53.596;10.042;2022-07-22T05:04:21;3.08;;;1.42;;
15637;SDS011;26604;53.596;10.042;2022-07-22T05:06:47;3.60;;;1.33;;
15637;SDS011;26604;53.596;10.042;2022-07-22T05:09:14;4.78;;;1.30;;
15637;SDS011;26604;53.596;10.042;2022-07-22T05:11:41;2.95;;;1.35;;
15637;SDS011;26604;53.596;10.042;2022-07-22T05:14:08;2.85;;;1.20;;
15637;SDS011;26604;53.596;10.042;2022-07-22T05:16:35;3.22;;;1.20;;
15637;SDS011;26604;53.596;10.042;2022-07-22T05:19:03;2.47;;;1.00;;
15637;SDS011;26604;53.596;10.042;2022-07-22T05:21:32;6.43;;;1.27;;
15637;SDS011;26604;53.596;10.042;2022-07-22T05:23:59;2.55;;;1.00;;
15637;SDS011;26604;53.596;10.042;2022-07-22T05:26:26;3.25;;;1.63;;
15637;SDS011;26604;53.596;10.042;2022-07-22T05:28:54;3.17;;;1.27;;
15637;SDS011;26604;53.596;10.042;2022-07-22T05:31:21;1.33;;;1.10;;
15637;SDS011;26604;53.596;10.042;2022-07-22T05:33:48;4.43;;;1.30;;
15637;SDS011;26604;53.596;10.042;2022-07-22T05:36:15;3.10;;;1.17;;
15637;SDS011;26604;53.596;10.042;2022-07-22T05:38:43;3.60;;;1.40;;
15637;SDS011;26604;53.596;10.042;2022-07-22T05:41:10;1.90;;;1.17;;
15637;SDS011;26604;53.596;10.042;2022-07-22T05:43:37;2.30;;;1.20;;
15637;SDS011;26604;53.596;10.042;2022-07-22T05:46:04;5.38;;;1.20;;
15637;SDS011;26604;53.596;10.042;2022-07-22T05:48:32;4.40;;;1.08;;
15637;SDS011;26604;53.596;10.042;2022-07-22T05:50:59;4.38;;;1.42;;
15637;SDS011;26604;53.596;10.042;2022-07-22T05:53:26;3.47;;;1.40;;
15637;SDS011;26604;53.596;10.042;2022-07-22T05:55:54;1.83;;;1.00;;
15637;SDS011;26604;53.596;10.042;2022-07-22T05:58:21;1.65;;;0.85;;
15637;SDS011;26604;53.596;10.042;2022-07-22T06:00:48;4.10;;;1.50;;
15637;SDS011;26604;53.596;10.042;2022-07-22T06:03:15;4.40;;;1.50;;
15637;SDS011;26604;53.596;10.042;2022-07-22T06:05:42;5.00;;;1.50;;
15637;SDS011;26604;53.596;10.042;2022-07-22T06:08:08;6.97;;;1.52;;
15637;SDS011;26604;53.596;10.042;2022-07-22T06:10:35;4.35;;;1.15;;
15637;SDS011;26604;53.596;10.042;2022-07-22T06:13:03;5.03;;;1.60;;
15637;SDS011;26604;53.596;10.042;2022-07-22T06:15:30;2.03;;;1.17;;
15637;SDS011;26604;53.596;10.042;2022-07-22T06:17:57;3.95;;;1.58;;
15637;SDS011;26604;53.596;10.042;2022-07-22T06:20:24;5.07;;;1.30;;
15637;SDS011;26604;53.596;10.042;2022-07-22T06:22:51;4.28;;;1.50;;
15637;SDS011;26604;53.596;10.042;2022-07-22T06:25:18;3.17;;;1.30;;
15637;SDS011;26604;53.596;10.042;2022-07-22T06:27:45;2.60;;;1.30;;
15637;SDS011;26604;53.596;10.042;2022-07-22T06:30:13;3.63;;;1.40;;
15637;SDS011;26604;53.596;10.042;2022-07-22T06:32:40;3.05;;;1.30;;
15637;SDS011;26604;53.596;10.042;2022-07-22T06:35:07;2.22;;;1.30;;
15637;SDS011;26604;53.596;10.042;2022-07-22T06:37:34;3.38;;;1.45;;
15637;SDS011;26604;53.596;10.042;2022-07-22T06:40:02;3.85;;;1.40;;
15637;SDS011;26604;53.596;10.042;2022-07-22T06:42:29;3.80;;;1.23;;
15637;SDS011;26604;53.596;10.042;2022-07-22T06:44:56;5.13;;;1.27;;
15637;SDS011;26604;53.596;10.042;2022-07-22T06:47:24;3.50;;;1.60;;
15637;SDS011;26604;53.596;10.042;2022-07-22T06:49:51;5.18;;;1.50;;
15637;SDS011;26604;53.596;10.042;2022-07-22T06:52:18;3.53;;;1.23;;
15637;SDS011;26604;53.596;10.042;2022-07-22T06:54:45;3.72;;;1.40;;
15637;SDS011;26604;53.596;10.042;2022-07-22T06:57:12;2.42;;;1.33;;
15637;SDS011;26604;53.596;10.042;2022-07-22T06:59:39;4.05;;;1.70;;
15637;SDS011;26604;53.596;10.042;2022-07-22T07:02:06;3.20;;;1.17;;
15637;SDS011;26604;53.596;10.042;2022-07-22T07:04:35;6.53;;;1.70;;
15637;SDS011;26604;53.596;10.042;2022-07-22T07:07:01;4.35;;;1.48;;
15637;SDS011;26604;53.596;10.042;2022-07-22T07:09:28;7.15;;;1.70;;
15637;SDS011;26604;53.596;10.042;2022-07-22T07:11:55;3.30;;;1.55;;
15637;SDS011;26604;53.596;10.042;2022-07-22T07:14:22;7.50;;;2.17;;
15637;SDS011;26604;53.596;10.042;2022-07-22T07:16:49;5.88;;;1.83;;
15637;SDS011;26604;53.596;10.042;2022-07-22T07:19:16;7.65;;;2.00;;
15637;SDS011;26604;53.596;10.042;2022-07-22T07:21:46;9.57;;;1.70;;
15637;SDS011;26604;53.596;10.042;2022-07-22T07:24:13;7.70;;;1.80;;
15637;SDS011;26604;53.596;10.042;2022-07-22T07:26:39;6.10;;;2.60;;
15637;SDS011;26604;53.596;10.042;2022-07-22T07:29:06;7.93;;;1.98;;
15637;SDS011;26604;53.596;10.042;2022-07-22T07:31:33;7.40;;;2.08;;
15637;SDS011;26604;53.596;10.042;2022-07-22T07:34:01;9.05;;;1.92;;
15637;SDS011;26604;53.596;10.042;2022-07-22T07:36:27;6.30;;;2.00;;
15637;SDS011;26604;53.596;10.042;2022-07-22T07:38:56;10.40;;;1.75;;
15637;SDS011;26604;53.596;10.042;2022-07-22T07:41:23;9.20;;;2.40;;
15637;SDS011;26604;53.596;10.042;2022-07-22T07:43:49;6.03;;;1.80;;
15637;SDS011;26604;53.596;10.042;2022-07-22T07:46:16;8.55;;;1.92;;
15637;SDS011;26604;53.596;10.042;2022-07-22T07:48:43;6.53;;;1.95;;
15637;SDS011;26604;53.596;10.042;2022-07-22T07:51:12;4.10;;;1.73;;
15637;SDS011;26604;53.596;10.042;2022-07-22T07:53:39;4.85;;;1.52;;
15637;SDS011;26604;53.596;10.042;2022-07-22T07:56:07;4.20;;;1.65;;
15637;SDS011;26604;53.596;10.042;2022-07-22T07:58:34;4.88;;;1.55;;
15637;SDS011;26604;53.596;10.042;2022-07-22T08:01:01;5.50;;;1.40;;
15637;SDS011;26604;53.596;10.042;2022-07-22T08:03:28;6.30;;;2.42;;
15637;SDS011;26604;53.596;10.042;2022-07-22T08:05:55;5.72;;;1.55;;
15637;SDS011;26604;53.596;10.042;2022-07-22T08:08:22;4.20;;;1.42;;
15637;SDS011;26604;53.596;10.042;2022-07-22T08:10:49;6.20;;;1.65;;
15637;SDS011;26604;53.596;10.042;2022-07-22T08:13:18;5.20;;;1.40;;
15637;SDS011;26604;53.596;10.042;2022-07-22T08:15:45;3.63;;;1.45;;
15637;SDS011;26604;53.596;10.042;2022-07-22T08:18:12;3.55;;;1.58;;
15637;SDS011;26604;53.596;10.042;2022-07-22T08:20:39;5.60;;;1.50;;
15637;SDS011;26604;53.596;10.042;2022-07-22T08:23:06;9.10;;;2.42;;
15637;SDS011;26604;53.596;10.042;2022-07-22T08:25:33;6.93;;;1.83;;
15637;SDS011;26604;53.596;10.042;2022-07-22T08:28:00;4.93;;;1.77;;
15637;SDS011;26604;53.596;10.042;2022-07-22T08:30:28;8.10;;;1.80;;
15637;SDS011;26604;53.596;10.042;2022-07-22T08:32:56;5.80;;;1.90;;
15637;SDS011;26604;53.596;10.042;2022-07-22T08:35:23;7.07;;;1.65;;
15637;SDS011;26604;53.596;10.042;2022-07-22T08:37:50;3.80;;;1.50;;
15637;SDS011;26604;53.596;10.042;2022-07-22T08:40:17;7.00;;;1.70;;
15637;SDS011;26604;53.596;10.042;2022-07-22T08:42:45;5.05;;;1.75;;
15637;SDS011;26604;53.596;10.042;2022-07-22T08:45:13;3.72;;;1.73;;
15637;SDS011;26604;53.596;10.042;2022-07-22T08:47:44;6.65;;;1.50;;
15637;SDS011;26604;53.596;10.042;2022-07-22T08:50:12;5.10;;;1.70;;
15637;SDS011;26604;53.596;10.042;2022-07-22T08:52:39;3.47;;;1.23;;
15637;SDS011;26604;53.596;10.042;2022-07-22T08:55:07;4.18;;;1.50;;
15637;SDS011;26604;53.596;10.042;2022-07-22T08:57:35;5.30;;;1.50;;
15637;SDS011;26604;53.596;10.042;2022-07-22T09:00:03;3.80;;;1.38;;
15637;SDS011;26604;53.596;10.042;2022-07-22T09:02:36;5.38;;;1.15;;
15637;SDS011;26604;53.596;10.042;2022-07-22T09:05:07;5.18;;;1.65;;
15637;SDS011;26604;53.596;10.042;2022-07-22T09:07:36;5.22;;;1.60;;
15637;SDS011;26604;53.596;10.042;2022-07-22T09:10:04;5.10;;;1.30;;
15637;SDS011;26604;53.596;10.042;2022-07-22T09:12:32;4.32;;;1.50;;
15637;SDS011;26604;53.596;10.042;2022-07-22T09:15:00;3.80;;;1.38;;
15637;SDS011;26604;53.596;10.042;2022-07-22T09:17:29;5.72;;;1.75;;
15637;SDS011;26604;53.596;10.042;2022-07-22T09:19:58;3.80;;;1.33;;
15637;SDS011;26604;53.596;10.042;2022-07-22T09:22:37;5.80;;;1.40;;
15637;SDS011;26604;53.596;10.042;2022-07-22T09:25:18;5.75;;;1.52;;
15637;SDS011;26604;53.596;10.042;2022-07-22T09:27:53;4.25;;;1.42;;
15637;SDS011;26604;53.596;10.042;2022-07-22T09:30:21;3.15;;;1.30;;
15637;SDS011;26604;53.596;10.042;2022-07-22T09:32:50;4.72;;;1.92;;
15637;SDS011;26604;53.596;10.042;2022-07-22T09:35:19;4.15;;;1.45;;
15637;SDS011;26604;53.596;10.042;2022-07-22T09:37:48;3.65;;;1.08;;
15637;SDS011;26604;53.596;10.042;2022-07-22T09:40:17;3.60;;;1.38;;
15637;SDS011;26604;53.596;10.042;2022-07-22T09:42:46;5.22;;;1.50;;
15637;SDS011;26604;53.596;10.042;2022-07-22T09:45:15;3.15;;;1.55;;
15637;SDS011;26604;53.596;10.042;2022-07-22T09:47:42;2.30;;;1.00;;
15637;SDS011;26604;53.596;10.042;2022-07-22T09:50:19;2.45;;;1.23;;
15637;SDS011;26604;53.596;10.042;2022-07-22T09:52:48;4.18;;;1.23;;
15637;SDS011;26604;53.596;10.042;2022-07-22T09:55:17;4.68;;;1.63;;
15637;SDS011;26604;53.596;10.042;2022-07-22T09:57:45;2.88;;;1.00;;
15637;SDS011;26604;53.596;10.042;2022-07-22T10:00:13;3.72;;;1.05;;
15637;SDS011;26604;53.596;10.042;2022-07-22T10:02:44;3.22;;;1.00;;
15637;SDS011;26604;53.596;10.042;2022-07-22T10:05:12;4.47;;;1.20;;
15637;SDS011;26604;53.596;10.042;2022-07-22T10:07:41;4.43;;;1.52;;
15637;SDS011;26604;53.596;10.042;2022-07-22T10:10:11;2.35;;;0.90;;
15637;SDS011;26604;53.596;10.042;2022-07-22T10:12:39;4.25;;;1.20;;
15637;SDS011;26604;53.596;10.042;2022-07-22T10:15:07;6.10;;;1.58;;
15637;SDS011;26604;53.596;10.042;2022-07-22T10:17:36;3.97;;;1.55;;
15637;SDS011;26604;53.596;10.042;2022-07-22T10:20:05;3.08;;;0.90;;
15637;SDS011;26604;53.596;10.042;2022-07-22T10:25:25;4.68;;;1.33;;
15637;SDS011;26604;53.596;10.042;2022-07-22T10:27:54;5.18;;;1.30;;
15637;SDS011;26604;53.596;10.042;2022-07-22T10:30:23;4.20;;;1.40;;
15637;SDS011;26604;53.596;10.042;2022-07-22T10:33:01;3.92;;;1.20;;
15637;SDS011;26604;53.596;10.042;2022-07-22T10:35:30;2.20;;;0.98;;
15637;SDS011;26604;53.596;10.042;2022-07-22T10:37:59;4.95;;;1.13;;
15637;SDS011;26604;53.596;10.042;2022-07-22T10:40:30;3.13;;;1.08;;
15637;SDS011;26604;53.596;10.042;2022-07-22T10:45:47;3.40;;;1.15;;
15637;SDS011;26604;53.596;10.042;2022-07-22T10:48:20;3.67;;;1.20;;
15637;SDS011;26604;53.596;10.042;2022-07-22T10:50:52;3.90;;;1.10;;
15637;SDS011;26604;53.596;10.042;2022-07-22T10:53:38;3.92;;;1.30;;
15637;SDS011;26604;53.596;10.042;2022-07-22T10:56:17;3.42;;;1.35;;
15637;SDS011;26604;53.596;10.042;2022-07-22T10:58:56;4.75;;;1.25;;
15637;SDS011;26604;53.596;10.042;2022-07-22T11:01:25;4.53;;;1.60;;
15637;SDS011;26604;53.596;10.042;2022-07-22T11:03:54;12.95;;;2.55;;
15637;SDS011;26604;53.596;10.042;2022-07-22T11:06:23;12.80;;;2.60;;
15637;SDS011;26604;53.596;10.042;2022-07-22T11:08:52;11.70;;;2.55;;
15637;SDS011;26604;53.596;10.042;2022-07-22T11:11:35;5.60;;;1.50;;
15637;SDS011;26604;53.596;10.042;2022-07-22T11:14:17;6.03;;;1.70;;
15637;SDS011;26604;53.596;10.042;2022-07-22T11:16:47;9.38;;;1.23;;
15637;SDS011;26604;53.596;10.042;2022-07-22T11:19:19;3.30;;;1.98;;
15637;SDS011;26604;53.596;10.042;2022-07-22T11:21:48;5.60;;;1.35;;
15637;SDS011;26604;53.596;10.042;2022-07-22T11:24:17;5.40;;;1.48;;
15637;SDS011;26604;53.596;10.042;2022-07-22T11:26:48;4.15;;;1.30;;
15637;SDS011;26604;53.596;10.042;2022-07-22T11:29:17;3.38;;;1.08;;
15637;SDS011;26604;53.596;10.042;2022-07-22T11:31:50;5.63;;;1.55;;
15637;SDS011;26604;53.596;10.042;2022-07-22T11:34:16;4.65;;;1.20;;
15637;SDS011;26604;53.596;10.042;2022-07-22T11:36:45;9.88;;;1.75;;
15637;SDS011;26604;53.596;10.042;2022-07-22T11:39:13;2.95;;;1.25;;
15637;SDS011;26604;53.596;10.042;2022-07-22T11:41:46;4.63;;;1.13;;
15637;SDS011;26604;53.596;10.042;2022-07-22T11:44:16;5.80;;;1.15;;
15637;SDS011;26604;53.596;10.042;2022-07-22T11:46:44;4.85;;;1.10;;
15637;SDS011;26604;53.596;10.042;2022-07-22T11:49:12;3.60;;;0.95;;
15637;SDS011;26604;53.596;10.042;2022-07-22T11:51:40;4.97;;;0.82;;
15637;SDS011;26604;53.596;10.042;2022-07-22T11:54:07;4.38;;;1.38;;
15637;SDS011;26604;53.596;10.042;2022-07-22T11:56:35;5.22;;;1.40;;
15637;SDS011;26604;53.596;10.042;2022-07-22T11:59:04;6.15;;;1.30;;
15637;SDS011;26604;53.596;10.042;2022-07-22T12:01:32;3.40;;;1.17;;
15637;SDS011;26604;53.596;10.042;2022-07-22T12:04:02;5.63;;;1.40;;
15637;SDS011;26604;53.596;10.042;2022-07-22T12:06:30;4.03;;;1.00;;
15637;SDS011;26604;53.596;10.042;2022-07-22T12:09:03;3.08;;;0.95;;
15637;SDS011;26604;53.596;10.042;2022-07-22T12:11:32;2.78;;;1.05;;
15637;SDS011;26604;53.596;10.042;2022-07-22T12:14:05;3.97;;;0.93;;
15637;SDS011;26604;53.596;10.042;2022-07-22T12:16:34;2.20;;;0.93;;
15637;SDS011;26604;53.596;10.042;2022-07-22T12:19:02;2.65;;;0.90;;
15637;SDS011;26604;53.596;10.042;2022-07-22T12:21:31;1.15;;;0.77;;
15637;SDS011;26604;53.596;10.042;2022-07-22T12:24:00;2.10;;;0.90;;
15637;SDS011;26604;53.596;10.042;2022-07-22T12:26:42;3.80;;;0.80;;
15637;SDS011;26604;53.596;10.042;2022-07-22T12:29:14;2.03;;;0.90;;
15637;SDS011;26604;53.596;10.042;2022-07-22T12:31:43;3.88;;;0.80;;
15637;SDS011;26604;53.596;10.042;2022-07-22T12:34:10;4.80;;;1.20;;
15637;SDS011;26604;53.596;10.042;2022-07-22T12:36:37;2.47;;;1.02;;
15637;SDS011;26604;53.596;10.042;2022-07-22T12:39:11;3.47;;;1.30;;
15637;SDS011;26604;53.596;10.042;2022-07-22T12:41:44;4.15;;;1.60;;
15637;SDS011;26604;53.596;10.042;2022-07-22T12:44:20;1.52;;;0.82;;
15637;SDS011;26604;53.596;10.042;2022-07-22T12:46:49;2.15;;;1.00;;
15637;SDS011;26604;53.596;10.042;2022-07-22T12:49:18;3.33;;;1.00;;
15637;SDS011;26604;53.596;10.042;2022-07-22T12:52:05;3.08;;;1.30;;
15637;SDS011;26604;53.596;10.042;2022-07-22T12:54:33;1.90;;;0.90;;
15637;SDS011;26604;53.596;10.042;2022-07-22T12:57:00;2.38;;;1.10;;
15637;SDS011;26604;53.596;10.042;2022-07-22T12:59:29;3.55;;;1.08;;
15637;SDS011;26604;53.596;10.042;2022-07-22T13:01:56;1.88;;;0.77;;
15637;SDS011;26604;53.596;10.042;2022-07-22T13:04:23;1.70;;;0.80;;
15637;SDS011;26604;53.596;10.042;2022-07-22T13:06:50;3.38;;;1.00;;
15637;SDS011;26604;53.596;10.042;2022-07-22T13:09:17;3.25;;;0.90;;
15637;SDS011;26604;53.596;10.042;2022-07-22T13:11:44;2.85;;;1.13;;
15637;SDS011;26604;53.596;10.042;2022-07-22T13:14:11;3.75;;;1.10;;
15637;SDS011;26604;53.596;10.042;2022-07-22T13:16:40;2.75;;;1.10;;
15637;SDS011;26604;53.596;10.042;2022-07-22T13:19:07;2.60;;;1.10;;
15637;SDS011;26604;53.596;10.042;2022-07-22T13:21:34;4.68;;;1.00;;
15637;SDS011;26604;53.596;10.042;2022-07-22T13:24:01;2.22;;;0.75;;
15637;SDS011;26604;53.596;10.042;2022-07-22T13:26:28;7.63;;;1.10;;
15637;SDS011;26604;53.596;10.042;2022-07-22T13:28:55;3.85;;;1.10;;
15637;SDS011;26604;53.596;10.042;2022-07-22T13:31:22;5.15;;;0.90;;
15637;SDS011;26604;53.596;10.042;2022-07-22T13:33:50;5.45;;;1.30;;
15637;SDS011;26604;53.596;10.042;2022-07-22T13:36:17;5.20;;;1.20;;
15637;SDS011;26604;53.596;10.042;2022-07-22T13:38:44;4.07;;;1.00;;
15637;SDS011;26604;53.596;10.042;2022-07-22T13:41:12;3.80;;;1.05;;
15637;SDS011;26604;53.596;10.042;2022-07-22T13:43:43;3.88;;;1.02;;
15637;SDS011;26604;53.596;10.042;2022-07-22T13:46:10;1.85;;;0.70;;
15637;SDS011;26604;53.596;10.042;2022-07-22T13:48:37;1.85;;;0.90;;
15637;SDS011;26604;53.596;10.042;2022-07-22T13:51:05;2.17;;;1.05;;
15637;SDS011;26604;53.596;10.042;2022-07-22T13:53:32;3.20;;;1.50;;
15637;SDS011;26604;53.596;10.042;2022-07-22T13:56:00;1.20;;;0.90;;
15637;SDS011;26604;53.596;10.042;2022-07-22T13:58:27;2.47;;;0.90;;
15637;SDS011;26604;53.596;10.042;2022-07-22T14:00:54;1.90;;;0.90;;
15637;SDS011;26604;53.596;10.042;2022-07-22T14:03:21;1.85;;;0.82;;
15637;SDS011;26604;53.596;10.042;2022-07-22T14:05:48;3.53;;;0.85;;
15637;SDS011;26604;53.596;10.042;2022-07-22T14:08:16;3.50;;;0.82;;
15637;SDS011;26604;53.596;10.042;2022-07-22T14:10:43;2.55;;;0.90;;
15637;SDS011;26604;53.596;10.042;2022-07-22T14:13:10;2.47;;;1.30;;
15637;SDS011;26604;53.596;10.042;2022-07-22T14:15:37;2.55;;;1.17;;
15637;SDS011;26604;53.596;10.042;2022-07-22T14:18:04;5.00;;;1.17;;
15637;SDS011;26604;53.596;10.042;2022-07-22T14:20:32;5.20;;;1.00;;
15637;SDS011;26604;53.596;10.042;2022-07-22T14:23:00;11.10;;;1.42;;
15637;SDS011;26604;53.596;10.042;2022-07-22T14:25:29;9.20;;;1.17;;
15637;SDS011;26604;53.596;10.042;2022-07-22T14:27:56;10.32;;;1.38;;
15637;SDS011;26604;53.596;10.042;2022-07-22T14:30:23;8.75;;;1.40;;
15637;SDS011;26604;53.596;10.042;2022-07-22T14:32:52;10.63;;;1.38;;
15637;SDS011;26604;53.596;10.042;2022-07-22T14:35:19;8.85;;;1.27;;
15637;SDS011;26604;53.596;10.042;2022-07-22T14:37:46;3.45;;;1.08;;
15637;SDS011;26604;53.596;10.042;2022-07-22T14:40:14;2.97;;;1.20;;
15637;SDS011;26604;53.596;10.042;2022-07-22T14:42:42;2.42;;;1.00;;